sensor_id;sensor_type;location;lat;lon;timestamp;temperature;humidity
27896;DHT22;15241;48.374;10.876;2023-01-05T00:02:25;10.70;99.90
27896;DHT22;15241;48.374;10.876;2023-01-05T00:07:24;10.70;99.90
27896;DHT22;15241;48.374;10.876;2023-01-05T00:12:23;10.60;99.90
27896;DHT22;15241;48.374;10.876;2023-01-05T00:17:23;10.50;99.90
27896;DHT22;15241;48.374;10.876;2023-01-05T00:22:24;10.50;99.90
27896;DHT22;15241;48.374;10.876;2023-01-05T00:27:23;10.60;99.90
27896;DHT22;15241;48.374;10.876;2023-01-05T00:32:22;10.50;99.90
27896;DHT22;15241;48.374;10.876;2023-01-05T00:37:21;10.50;99.90
27896;DHT22;15241;48.374;10.876;2023-01-05T00:42:21;10.60;99.90
27896;DHT22;15241;48.374;10.876;2023-01-05T00:47:20;10.50;99.90
27896;DHT22;15241;48.374;10.876;2023-01-05T00:57:28;10.60;99.90
27896;DHT22;15241;48.374;10.876;2023-01-05T01:02:27;10.50;99.90
27896;DHT22;15241;48.374;10.876;2023-01-05T01:07:26;10.50;99.90
27896;DHT22;15241;48.374;10.876;2023-01-05T01:12:25;10.50;99.90
27896;DHT22;15241;48.374;10.876;2023-01-05T01:17:24;10.50;99.90
27896;DHT22;15241;48.374;10.876;2023-01-05T01:22:22;10.50;99.90
27896;DHT22;15241;48.374;10.876;2023-01-05T01:27:21;10.40;99.90
27896;DHT22;15241;48.374;10.876;2023-01-05T01:32:20;10.40;99.90
27896;DHT22;15241;48.374;10.876;2023-01-05T01:37:19;10.40;99.90
27896;DHT22;15241;48.374;10.876;2023-01-05T01:42:18;10.50;99.90
27896;DHT22;15241;48.374;10.876;2023-01-05T01:47:23;10.50;99.90
27896;DHT22;15241;48.374;10.876;2023-01-05T01:52:23;10.60;99.90
27896;DHT22;15241;48.374;10.876;2023-01-05T01:57:23;10.60;99.90
27896;DHT22;15241;48.374;10.876;2023-01-05T02:02:24;10.70;99.90
27896;DHT22;15241;48.374;10.876;2023-01-05T02:07:24;10.70;99.90
27896;DHT22;15241;48.374;10.876;2023-01-05T02:12:30;10.70;99.90
27896;DHT22;15241;48.374;10.876;2023-01-05T02:17:33;10.70;99.90
27896;DHT22;15241;48.374;10.876;2023-01-05T02:22:54;10.70;99.90
27896;DHT22;15241;48.374;10.876;2023-01-05T02:27:56;10.60;99.90
27896;DHT22;15241;48.374;10.876;2023-01-05T02:32:59;10.50;99.90
27896;DHT22;15241;48.374;10.876;2023-01-05T02:38:04;10.50;99.90
27896;DHT22;15241;48.374;10.876;2023-01-05T02:43:01;10.60;99.90
27896;DHT22;15241;48.374;10.876;2023-01-05T02:48:01;10.50;99.90
27896;DHT22;15241;48.374;10.876;2023-01-05T02:53:03;10.60;99.90
27896;DHT22;15241;48.374;10.876;2023-01-05T02:58:05;10.50;99.90
27896;DHT22;15241;48.374;10.876;2023-01-05T03:03:08;10.60;99.90
27896;DHT22;15241;48.374;10.876;2023-01-05T03:08:10;10.50;99.90
27896;DHT22;15241;48.374;10.876;2023-01-05T03:13:10;10.50;99.90
27896;DHT22;15241;48.374;10.876;2023-01-05T03:23:17;10.60;99.90
27896;DHT22;15241;48.374;10.876;2023-01-05T03:28:20;10.60;99.90
27896;DHT22;15241;48.374;10.876;2023-01-05T03:38:35;10.60;99.90
27896;DHT22;15241;48.374;10.876;2023-01-05T03:43:35;10.70;99.90
27896;DHT22;15241;48.374;10.876;2023-01-05T03:48:34;10.70;99.90
27896;DHT22;15241;48.374;10.876;2023-01-05T03:53:33;10.80;99.90
27896;DHT22;15241;48.374;10.876;2023-01-05T03:58:32;10.80;99.90
27896;DHT22;15241;48.374;10.876;2023-01-05T04:03:31;10.80;99.90
27896;DHT22;15241;48.374;10.876;2023-01-05T04:08:30;10.80;99.90
27896;DHT22;15241;48.374;10.876;2023-01-05T04:13:29;10.90;99.90
27896;DHT22;15241;48.374;10.876;2023-01-05T04:18:28;10.90;99.90
27896;DHT22;15241;48.374;10.876;2023-01-05T04:23:27;10.90;99.90
27896;DHT22;15241;48.374;10.876;2023-01-05T04:28:26;10.90;99.90
27896;DHT22;15241;48.374;10.876;2023-01-05T04:33:25;11.00;99.90
27896;DHT22;15241;48.374;10.876;2023-01-05T04:38:24;10.90;99.90
27896;DHT22;15241;48.374;10.876;2023-01-05T04:43:23;10.90;99.90
27896;DHT22;15241;48.374;10.876;2023-01-05T04:48:22;11.00;99.90
27896;DHT22;15241;48.374;10.876;2023-01-05T04:53:21;11.00;99.90
27896;DHT22;15241;48.374;10.876;2023-01-05T04:58:19;11.00;99.90
27896;DHT22;15241;48.374;10.876;2023-01-05T05:03:18;11.00;99.90
27896;DHT22;15241;48.374;10.876;2023-01-05T05:08:17;10.90;99.90
27896;DHT22;15241;48.374;10.876;2023-01-05T05:13:16;11.00;99.90
27896;DHT22;15241;48.374;10.876;2023-01-05T05:18:15;10.90;99.90
27896;DHT22;15241;48.374;10.876;2023-01-05T05:23:14;10.90;99.90
27896;DHT22;15241;48.374;10.876;2023-01-05T05:28:13;11.00;99.90
27896;DHT22;15241;48.374;10.876;2023-01-05T05:33:12;10.90;99.90
27896;DHT22;15241;48.374;10.876;2023-01-05T05:38:11;11.00;99.90
27896;DHT22;15241;48.374;10.876;2023-01-05T05:43:10;10.90;99.90
27896;DHT22;15241;48.374;10.876;2023-01-05T05:48:08;10.90;99.90
27896;DHT22;15241;48.374;10.876;2023-01-05T05:53:07;10.90;99.90
27896;DHT22;15241;48.374;10.876;2023-01-05T05:58:06;11.00;99.90
27896;DHT22;15241;48.374;10.876;2023-01-05T06:03:05;11.00;99.90
27896;DHT22;15241;48.374;10.876;2023-01-05T06:08:04;11.00;99.90
27896;DHT22;15241;48.374;10.876;2023-01-05T06:13:04;11.00;99.90
27896;DHT22;15241;48.374;10.876;2023-01-05T06:18:03;10.90;99.90
27896;DHT22;15241;48.374;10.876;2023-01-05T06:23:02;10.80;99.90
27896;DHT22;15241;48.374;10.876;2023-01-05T06:28:02;10.80;99.90
27896;DHT22;15241;48.374;10.876;2023-01-05T06:33:01;10.90;99.90
27896;DHT22;15241;48.374;10.876;2023-01-05T06:37:59;10.90;99.90
27896;DHT22;15241;48.374;10.876;2023-01-05T06:42:58;10.90;99.90
27896;DHT22;15241;48.374;10.876;2023-01-05T06:47:57;10.80;99.90
27896;DHT22;15241;48.374;10.876;2023-01-05T06:52:56;10.90;99.90
27896;DHT22;15241;48.374;10.876;2023-01-05T06:57:55;10.90;99.90
27896;DHT22;15241;48.374;10.876;2023-01-05T07:02:54;10.90;99.90
27896;DHT22;15241;48.374;10.876;2023-01-05T07:07:53;10.80;99.90
27896;DHT22;15241;48.374;10.876;2023-01-05T07:12:52;10.90;99.90
27896;DHT22;15241;48.374;10.876;2023-01-05T07:17:51;10.80;99.90
27896;DHT22;15241;48.374;10.876;2023-01-05T07:22:50;10.90;99.90
27896;DHT22;15241;48.374;10.876;2023-01-05T07:27:51;10.90;99.90
27896;DHT22;15241;48.374;10.876;2023-01-05T07:32:50;10.90;99.90
27896;DHT22;15241;48.374;10.876;2023-01-05T07:37:48;11.00;99.90
27896;DHT22;15241;48.374;10.876;2023-01-05T07:42:50;10.90;99.90
27896;DHT22;15241;48.374;10.876;2023-01-05T07:47:50;10.90;99.90
27896;DHT22;15241;48.374;10.876;2023-01-05T07:57:54;10.90;99.90
27896;DHT22;15241;48.374;10.876;2023-01-05T08:02:53;10.90;99.90
27896;DHT22;15241;48.374;10.876;2023-01-05T08:07:52;10.80;99.90
27896;DHT22;15241;48.374;10.876;2023-01-05T08:12:51;10.90;99.90
27896;DHT22;15241;48.374;10.876;2023-01-05T08:17:50;10.80;99.90
27896;DHT22;15241;48.374;10.876;2023-01-05T08:22:51;10.80;99.90
27896;DHT22;15241;48.374;10.876;2023-01-05T08:27:50;10.70;99.90
27896;DHT22;15241;48.374;10.876;2023-01-05T08:32:49;10.70;99.90
27896;DHT22;15241;48.374;10.876;2023-01-05T08:37:48;10.70;99.90
27896;DHT22;15241;48.374;10.876;2023-01-05T08:42:47;10.80;99.90
27896;DHT22;15241;48.374;10.876;2023-01-05T08:47:45;10.70;99.90
27896;DHT22;15241;48.374;10.876;2023-01-05T08:52:44;10.70;99.90
27896;DHT22;15241;48.374;10.876;2023-01-05T08:57:43;10.80;99.90
27896;DHT22;15241;48.374;10.876;2023-01-05T09:02:42;11.00;99.90
27896;DHT22;15241;48.374;10.876;2023-01-05T09:07:41;11.00;99.90
27896;DHT22;15241;48.374;10.876;2023-01-05T09:12:40;11.00;99.90
27896;DHT22;15241;48.374;10.876;2023-01-05T09:17:39;11.00;99.90
27896;DHT22;15241;48.374;10.876;2023-01-05T09:22:38;11.00;99.90
27896;DHT22;15241;48.374;10.876;2023-01-05T09:27:37;11.10;99.90
27896;DHT22;15241;48.374;10.876;2023-01-05T09:32:37;11.10;99.90
27896;DHT22;15241;48.374;10.876;2023-01-05T09:37:36;11.10;99.90
27896;DHT22;15241;48.374;10.876;2023-01-05T09:42:36;11.10;99.90
27896;DHT22;15241;48.374;10.876;2023-01-05T09:47:39;11.00;99.90
27896;DHT22;15241;48.374;10.876;2023-01-05T09:52:39;11.10;99.90
27896;DHT22;15241;48.374;10.876;2023-01-05T09:57:38;11.00;99.90
27896;DHT22;15241;48.374;10.876;2023-01-05T10:02:40;11.00;99.90
27896;DHT22;15241;48.374;10.876;2023-01-05T10:07:43;10.90;99.90
27896;DHT22;15241;48.374;10.876;2023-01-05T10:12:45;10.80;99.90
27896;DHT22;15241;48.374;10.876;2023-01-05T10:17:44;10.90;99.90
27896;DHT22;15241;48.374;10.876;2023-01-05T10:22:49;10.80;99.90
27896;DHT22;15241;48.374;10.876;2023-01-05T10:27:52;10.80;99.90
27896;DHT22;15241;48.374;10.876;2023-01-05T10:32:57;10.90;99.90
27896;DHT22;15241;48.374;10.876;2023-01-05T10:38:04;11.20;99.90
27896;DHT22;15241;48.374;10.876;2023-01-05T10:43:16;11.30;99.90
27896;DHT22;15241;48.374;10.876;2023-01-05T10:48:17;11.40;99.90
27896;DHT22;15241;48.374;10.876;2023-01-05T10:53:18;11.50;99.90
27896;DHT22;15241;48.374;10.876;2023-01-05T10:58:23;11.60;99.90
27896;DHT22;15241;48.374;10.876;2023-01-05T11:03:23;11.70;99.90
27896;DHT22;15241;48.374;10.876;2023-01-05T11:08:24;12.00;99.90
27896;DHT22;15241;48.374;10.876;2023-01-05T11:13:27;12.20;99.90
27896;DHT22;15241;48.374;10.876;2023-01-05T11:18:31;12.40;99.90
27896;DHT22;15241;48.374;10.876;2023-01-05T11:28:43;13.00;99.90
27896;DHT22;15241;48.374;10.876;2023-01-05T11:33:44;13.40;99.90
27896;DHT22;15241;48.374;10.876;2023-01-05T11:38:43;13.70;99.90
27896;DHT22;15241;48.374;10.876;2023-01-05T11:43:45;13.50;99.90
27896;DHT22;15241;48.374;10.876;2023-01-05T11:48:51;13.60;99.90
27896;DHT22;15241;48.374;10.876;2023-01-05T11:53:50;13.60;99.90
27896;DHT22;15241;48.374;10.876;2023-01-05T11:58:50;13.70;99.90
27896;DHT22;15241;48.374;10.876;2023-01-05T12:04:06;13.50;99.90
27896;DHT22;15241;48.374;10.876;2023-01-05T12:14:23;13.10;99.90
27896;DHT22;15241;48.374;10.876;2023-01-05T12:19:52;13.10;99.90
27896;DHT22;15241;48.374;10.876;2023-01-05T12:24:59;12.90;99.90
27896;DHT22;15241;48.374;10.876;2023-01-05T12:30:24;12.90;99.90
27896;DHT22;15241;48.374;10.876;2023-01-05T12:35:42;12.60;99.90
27896;DHT22;15241;48.374;10.876;2023-01-05T12:40:50;12.70;99.90
27896;DHT22;15241;48.374;10.876;2023-01-05T12:51:27;12.50;99.90
27896;DHT22;15241;48.374;10.876;2023-01-05T13:01:41;12.20;99.90
27896;DHT22;15241;48.374;10.876;2023-01-05T13:06:41;12.20;99.90
27896;DHT22;15241;48.374;10.876;2023-01-05T13:11:43;12.10;99.90
27896;DHT22;15241;48.374;10.876;2023-01-05T13:16:45;11.90;99.90
27896;DHT22;15241;48.374;10.876;2023-01-05T13:21:46;11.90;99.90
27896;DHT22;15241;48.374;10.876;2023-01-05T13:26:45;11.90;99.90
27896;DHT22;15241;48.374;10.876;2023-01-05T13:31:55;11.90;99.90
27896;DHT22;15241;48.374;10.876;2023-01-05T13:53:16;11.50;99.90
27896;DHT22;15241;48.374;10.876;2023-01-05T13:58:38;11.50;99.90
27896;DHT22;15241;48.374;10.876;2023-01-05T14:03:39;11.40;99.90
27896;DHT22;15241;48.374;10.876;2023-01-05T14:08:39;11.40;99.90
27896;DHT22;15241;48.374;10.876;2023-01-05T14:13:47;11.40;99.90
27896;DHT22;15241;48.374;10.876;2023-01-05T14:18:50;11.30;99.90
27896;DHT22;15241;48.374;10.876;2023-01-05T14:23:56;11.20;99.90
27896;DHT22;15241;48.374;10.876;2023-01-05T14:28:55;11.10;99.90
27896;DHT22;15241;48.374;10.876;2023-01-05T14:39:06;11.10;99.90
27896;DHT22;15241;48.374;10.876;2023-01-05T14:44:15;11.10;99.90
27896;DHT22;15241;48.374;10.876;2023-01-05T14:49:19;11.00;99.90
27896;DHT22;15241;48.374;10.876;2023-01-05T14:54:34;10.90;99.90
27896;DHT22;15241;48.374;10.876;2023-01-05T14:59:34;10.70;99.90
27896;DHT22;15241;48.374;10.876;2023-01-05T15:04:35;10.80;99.90
27896;DHT22;15241;48.374;10.876;2023-01-05T15:10:03;10.70;99.90
27896;DHT22;15241;48.374;10.876;2023-01-05T15:15:18;10.70;99.90
27896;DHT22;15241;48.374;10.876;2023-01-05T15:26:18;10.70;99.90
27896;DHT22;15241;48.374;10.876;2023-01-05T15:31:37;10.60;99.90
27896;DHT22;15241;48.374;10.876;2023-01-05T15:41:47;10.70;99.90
27896;DHT22;15241;48.374;10.876;2023-01-05T15:46:47;10.70;99.90
27896;DHT22;15241;48.374;10.876;2023-01-05T15:51:51;10.80;99.90
27896;DHT22;15241;48.374;10.876;2023-01-05T15:56:51;10.80;99.90
27896;DHT22;15241;48.374;10.876;2023-01-05T16:01:50;10.80;99.90
27896;DHT22;15241;48.374;10.876;2023-01-05T16:06:53;10.80;99.90
27896;DHT22;15241;48.374;10.876;2023-01-05T16:11:55;10.80;99.90
27896;DHT22;15241;48.374;10.876;2023-01-05T16:16:58;10.80;99.90
27896;DHT22;15241;48.374;10.876;2023-01-05T16:22:00;10.80;99.90
27896;DHT22;15241;48.374;10.876;2023-01-05T16:27:02;10.80;99.90
27896;DHT22;15241;48.374;10.876;2023-01-05T16:32:01;10.90;99.90
27896;DHT22;15241;48.374;10.876;2023-01-05T16:37:04;10.90;99.90
27896;DHT22;15241;48.374;10.876;2023-01-05T16:42:13;10.90;99.90
27896;DHT22;15241;48.374;10.876;2023-01-05T16:47:12;10.80;99.90
27896;DHT22;15241;48.374;10.876;2023-01-05T16:52:18;10.80;99.90
27896;DHT22;15241;48.374;10.876;2023-01-05T16:57:39;10.80;99.90
27896;DHT22;15241;48.374;10.876;2023-01-05T17:02:46;10.80;99.90
27896;DHT22;15241;48.374;10.876;2023-01-05T17:07:47;10.80;99.90
27896;DHT22;15241;48.374;10.876;2023-01-05T17:12:51;10.80;99.90
27896;DHT22;15241;48.374;10.876;2023-01-05T17:17:51;10.80;99.90
27896;DHT22;15241;48.374;10.876;2023-01-05T17:22:51;10.80;99.90
27896;DHT22;15241;48.374;10.876;2023-01-05T17:27:52;10.80;99.90
27896;DHT22;15241;48.374;10.876;2023-01-05T17:32:51;10.70;99.90
27896;DHT22;15241;48.374;10.876;2023-01-05T17:37:50;10.70;99.90
27896;DHT22;15241;48.374;10.876;2023-01-05T17:42:49;10.60;99.90
27896;DHT22;15241;48.374;10.876;2023-01-05T17:47:48;10.60;99.90
27896;DHT22;15241;48.374;10.876;2023-01-05T17:52:47;10.60;99.90
27896;DHT22;15241;48.374;10.876;2023-01-05T17:57:46;10.60;99.90
27896;DHT22;15241;48.374;10.876;2023-01-05T18:02:46;10.60;99.90
27896;DHT22;15241;48.374;10.876;2023-01-05T18:07:46;10.50;99.90
27896;DHT22;15241;48.374;10.876;2023-01-05T18:12:45;10.60;99.90
27896;DHT22;15241;48.374;10.876;2023-01-05T18:17:44;10.60;99.90
27896;DHT22;15241;48.374;10.876;2023-01-05T18:22:43;10.60;99.90
27896;DHT22;15241;48.374;10.876;2023-01-05T18:27:41;10.50;99.90
27896;DHT22;15241;48.374;10.876;2023-01-05T18:32:41;10.40;99.90
27896;DHT22;15241;48.374;10.876;2023-01-05T18:37:40;10.30;99.90
27896;DHT22;15241;48.374;10.876;2023-01-05T18:42:39;10.20;99.90
27896;DHT22;15241;48.374;10.876;2023-01-05T18:47:39;10.20;99.90
27896;DHT22;15241;48.374;10.876;2023-01-05T18:52:37;10.10;99.90
27896;DHT22;15241;48.374;10.876;2023-01-05T18:57:36;10.10;99.90
27896;DHT22;15241;48.374;10.876;2023-01-05T19:02:35;10.20;99.90
27896;DHT22;15241;48.374;10.876;2023-01-05T19:07:34;10.30;99.90
27896;DHT22;15241;48.374;10.876;2023-01-05T19:12:33;10.30;99.90
27896;DHT22;15241;48.374;10.876;2023-01-05T19:17:32;10.30;99.90
27896;DHT22;15241;48.374;10.876;2023-01-05T19:22:31;10.20;99.90
27896;DHT22;15241;48.374;10.876;2023-01-05T19:27:31;10.20;99.90
27896;DHT22;15241;48.374;10.876;2023-01-05T19:32:31;10.20;99.90
27896;DHT22;15241;48.374;10.876;2023-01-05T19:37:32;10.10;99.90
27896;DHT22;15241;48.374;10.876;2023-01-05T19:42:32;10.10;99.90
27896;DHT22;15241;48.374;10.876;2023-01-05T19:47:30;10.20;99.90
27896;DHT22;15241;48.374;10.876;2023-01-05T19:52:29;10.20;99.90
27896;DHT22;15241;48.374;10.876;2023-01-05T19:57:28;10.30;99.90
27896;DHT22;15241;48.374;10.876;2023-01-05T20:02:27;10.30;99.90
27896;DHT22;15241;48.374;10.876;2023-01-05T20:07:26;10.30;99.90
27896;DHT22;15241;48.374;10.876;2023-01-05T20:12:32;10.40;99.90
27896;DHT22;15241;48.374;10.876;2023-01-05T20:17:31;10.40;99.90
27896;DHT22;15241;48.374;10.876;2023-01-05T20:22:30;10.40;99.90
27896;DHT22;15241;48.374;10.876;2023-01-05T20:27:29;10.50;99.90
27896;DHT22;15241;48.374;10.876;2023-01-05T20:32:28;10.50;99.90
27896;DHT22;15241;48.374;10.876;2023-01-05T20:37:28;10.50;99.90
27896;DHT22;15241;48.374;10.876;2023-01-05T20:42:29;10.50;99.90
27896;DHT22;15241;48.374;10.876;2023-01-05T20:47:30;10.60;99.90
27896;DHT22;15241;48.374;10.876;2023-01-05T20:52:30;10.50;99.90
27896;DHT22;15241;48.374;10.876;2023-01-05T20:57:29;10.60;99.90
27896;DHT22;15241;48.374;10.876;2023-01-05T21:02:28;10.60;99.90
27896;DHT22;15241;48.374;10.876;2023-01-05T21:07:27;10.60;99.90
27896;DHT22;15241;48.374;10.876;2023-01-05T21:12:26;10.60;99.90
27896;DHT22;15241;48.374;10.876;2023-01-05T21:17:25;10.50;99.90
27896;DHT22;15241;48.374;10.876;2023-01-05T21:22:24;10.60;99.90
27896;DHT22;15241;48.374;10.876;2023-01-05T21:27:23;10.50;99.90
27896;DHT22;15241;48.374;10.876;2023-01-05T21:32:22;10.60;99.90
27896;DHT22;15241;48.374;10.876;2023-01-05T21:37:21;10.60;99.90
27896;DHT22;15241;48.374;10.876;2023-01-05T21:42:20;10.60;99.90
27896;DHT22;15241;48.374;10.876;2023-01-05T21:47:19;10.60;99.90
27896;DHT22;15241;48.374;10.876;2023-01-05T21:52:18;10.60;99.90
27896;DHT22;15241;48.374;10.876;2023-01-05T21:57:17;10.50;99.90
27896;DHT22;15241;48.374;10.876;2023-01-05T22:02:16;10.50;99.90
27896;DHT22;15241;48.374;10.876;2023-01-05T22:07:15;10.50;99.90
27896;DHT22;15241;48.374;10.876;2023-01-05T22:12:14;10.60;99.90
27896;DHT22;15241;48.374;10.876;2023-01-05T22:17:13;10.60;99.90
27896;DHT22;15241;48.374;10.876;2023-01-05T22:22:12;10.60;99.90
27896;DHT22;15241;48.374;10.876;2023-01-05T22:27:11;10.50;99.90
27896;DHT22;15241;48.374;10.876;2023-01-05T22:32:10;10.50;99.90
27896;DHT22;15241;48.374;10.876;2023-01-05T22:37:08;10.50;99.90
27896;DHT22;15241;48.374;10.876;2023-01-05T22:42:07;10.50;99.90
27896;DHT22;15241;48.374;10.876;2023-01-05T22:47:06;10.50;99.90
27896;DHT22;15241;48.374;10.876;2023-01-05T22:52:05;10.50;99.90
27896;DHT22;15241;48.374;10.876;2023-01-05T22:57:04;10.50;99.90
27896;DHT22;15241;48.374;10.876;2023-01-05T23:02:03;10.40;99.90
27896;DHT22;15241;48.374;10.876;2023-01-05T23:07:02;10.40;99.90
27896;DHT22;15241;48.374;10.876;2023-01-05T23:12:01;10.50;99.90
27896;DHT22;15241;48.374;10.876;2023-01-05T23:17:00;10.40;99.90
27896;DHT22;15241;48.374;10.876;2023-01-05T23:21:59;10.20;99.90
27896;DHT22;15241;48.374;10.876;2023-01-05T23:26:58;10.20;99.90
27896;DHT22;15241;48.374;10.876;2023-01-05T23:31:57;10.20;99.90
27896;DHT22;15241;48.374;10.876;2023-01-05T23:36:56;10.10;99.90
27896;DHT22;15241;48.374;10.876;2023-01-05T23:41:55;10.00;99.90
27896;DHT22;15241;48.374;10.876;2023-01-05T23:46:54;9.90;99.90
27896;DHT22;15241;48.374;10.876;2023-01-05T23:51:53;9.90;99.90
27896;DHT22;15241;48.374;10.876;2023-01-05T23:56:52;9.90;99.90
